createdAt,value
2018-07-01T00:00:12.500Z,78.06
2018-07-01T00:02:38.834Z,78.00
2018-07-01T00:05:05.150Z,78.00
2018-07-01T00:07:31.459Z,77.70
2018-07-01T00:09:57.785Z,77.78
2018-07-01T00:12:24.101Z,77.80
2018-07-01T00:14:50.412Z,77.94
2018-07-01T00:17:16.739Z,78.19
2018-07-01T00:19:44.368Z,78.39
2018-07-01T00:22:09.368Z,78.26
2018-07-01T00:24:35.686Z,78.53
2018-07-01T00:27:02.001Z,78.58
2018-07-01T00:29:28.317Z,78.58
2018-07-01T00:31:54.661Z,78.82
2018-07-01T00:34:21.000Z,79.01
2018-07-01T00:36:47.415Z,79.13
2018-07-01T00:39:13.728Z,79.51
2018-07-01T00:41:40.048Z,79.69
2018-07-01T00:44:06.381Z,79.78
2018-07-01T00:46:32.690Z,79.86
2018-07-01T00:48:59.036Z,80.06
2018-07-01T00:51:25.349Z,80.15
2018-07-01T00:53:51.664Z,80.32
2018-07-01T00:56:17.972Z,80.55
2018-07-01T00:58:44.288Z,80.70
2018-07-01T01:01:10.609Z,80.81
2018-07-01T01:03:36.962Z,81.12
2018-07-01T01:06:03.314Z,81.23
2018-07-01T01:08:29.658Z,81.48
2018-07-01T01:10:55.969Z,81.74
2018-07-01T01:13:22.315Z,81.76
2018-07-01T01:15:48.629Z,81.81
2018-07-01T01:18:14.936Z,81.68
2018-07-01T01:20:41.251Z,81.43
2018-07-01T01:23:07.569Z,80.75
2018-07-01T01:25:33.882Z,80.29
2018-07-01T01:28:00.234Z,79.96
2018-07-01T01:30:26.559Z,80.12
2018-07-01T01:32:52.876Z,80.12
2018-07-01T01:35:19.199Z,80.03
2018-07-01T01:37:45.515Z,80.25
2018-07-01T01:40:11.836Z,80.43
2018-07-01T01:42:38.160Z,80.47
2018-07-01T01:45:04.472Z,80.82
2018-07-01T01:47:30.787Z,81.04
2018-07-01T01:49:57.128Z,81.44
2018-07-01T01:52:23.438Z,81.95
2018-07-01T01:54:49.743Z,82.05
2018-07-01T01:57:16.060Z,82.38
2018-07-01T01:59:42.373Z,82.43
2018-07-01T02:02:08.695Z,82.42
2018-07-01T02:04:35.008Z,82.08
2018-07-01T02:07:01.327Z,81.95
2018-07-01T02:09:27.638Z,81.42
2018-07-01T02:11:53.953Z,80.84
2018-07-01T02:14:20.266Z,79.98
2018-07-01T02:16:46.581Z,79.36
2018-07-01T02:19:12.902Z,79.38
2018-07-01T02:21:39.250Z,78.80
2018-07-01T02:24:05.568Z,78.55
2018-07-01T02:26:31.892Z,78.13
2018-07-01T02:28:58.213Z,77.99
2018-07-01T02:31:24.521Z,77.40
2018-07-01T02:33:50.865Z,77.21
2018-07-01T02:36:17.177Z,76.97
2018-07-01T02:38:43.501Z,76.65
2018-07-01T02:41:09.818Z,76.37
2018-07-01T02:43:36.141Z,75.53
2018-07-01T02:46:02.457Z,74.94
2018-07-01T02:48:28.759Z,74.01
2018-07-01T02:50:55.082Z,72.67
2018-07-01T02:53:21.397Z,71.46
2018-07-01T02:55:47.748Z,69.45
2018-07-01T02:58:14.056Z,67.09
2018-07-01T03:00:40.370Z,66.31
2018-07-01T03:03:06.688Z,65.83
2018-07-01T03:05:32.997Z,64.25
2018-07-01T03:07:59.317Z,63.17
2018-07-01T03:10:25.624Z,63.03
2018-07-01T03:12:51.935Z,61.89
2018-07-01T03:15:18.251Z,61.44
2018-07-01T03:17:44.555Z,60.67
2018-07-01T03:20:10.863Z,60.58
2018-07-01T03:22:37.182Z,59.20
2018-07-01T03:25:03.498Z,59.21
2018-07-01T03:27:29.833Z,58.48
2018-07-01T03:29:56.149Z,58.59
2018-07-01T03:32:22.456Z,58.47
2018-07-01T03:34:48.801Z,58.02
2018-07-01T03:37:15.112Z,58.10
2018-07-01T03:39:41.427Z,58.33
2018-07-01T03:42:07.751Z,58.41
2018-07-01T03:44:34.061Z,58.02
2018-07-01T03:47:00.422Z,58.52
2018-07-01T03:49:26.731Z,57.82
2018-07-01T03:51:53.043Z,58.59
2018-07-01T03:54:19.368Z,58.36
2018-07-01T03:56:45.684Z,58.85
2018-07-01T03:59:11.997Z,59.20
2018-07-01T04:01:38.309Z,59.33
2018-07-01T04:04:04.628Z,59.09
2018-07-01T04:06:30.955Z,59.44
2018-07-01T04:08:57.323Z,59.85
2018-07-01T04:11:23.636Z,59.42
2018-07-01T04:13:49.969Z,59.30
2018-07-01T04:16:16.294Z,59.27
2018-07-01T04:18:42.609Z,58.76
2018-07-01T04:21:08.921Z,59.03
2018-07-01T04:23:35.229Z,59.33
2018-07-01T04:26:01.552Z,59.00
2018-07-01T04:28:27.867Z,58.89
2018-07-01T04:30:54.185Z,58.77
2018-07-01T04:33:20.494Z,58.58
2018-07-01T04:35:46.845Z,58.85
2018-07-01T04:38:13.160Z,57.80
2018-07-01T04:40:39.475Z,58.04
2018-07-01T04:43:05.795Z,58.11
2018-07-01T04:45:32.112Z,57.32
2018-07-01T04:47:58.435Z,57.54
2018-07-01T04:50:24.749Z,56.91
2018-07-01T04:52:51.055Z,56.71
2018-07-01T04:55:17.471Z,56.58
2018-07-01T04:57:43.709Z,56.53
2018-07-01T05:00:10.025Z,56.41
2018-07-01T05:02:36.339Z,56.17
2018-07-01T05:05:02.656Z,55.83
2018-07-01T05:07:28.972Z,55.59
2018-07-01T05:09:55.285Z,55.65
2018-07-01T05:12:21.626Z,55.43
2018-07-01T05:14:47.943Z,54.89
2018-07-01T05:17:14.356Z,55.02
2018-07-01T05:19:40.575Z,54.39
2018-07-01T05:22:06.893Z,52.72
2018-07-01T05:24:33.208Z,52.62
2018-07-01T05:26:59.527Z,52.01
2018-07-01T05:29:25.851Z,51.49
2018-07-01T05:31:52.175Z,50.56
2018-07-01T05:34:18.491Z,51.12
2018-07-01T05:36:44.861Z,50.10
2018-07-01T05:39:11.178Z,50.13
2018-07-01T05:41:37.489Z,45.87
2018-07-01T05:44:03.801Z,42.98
2018-07-01T05:46:30.114Z,39.64
2018-07-01T05:48:56.428Z,39.12
2018-07-01T05:51:22.743Z,39.27
2018-07-01T05:53:49.058Z,38.69
2018-07-01T05:56:15.373Z,40.08
2018-07-01T05:58:41.680Z,39.78
2018-07-01T06:01:07.999Z,38.80
2018-07-01T06:03:34.311Z,38.07
2018-07-01T06:06:00.629Z,37.29
2018-07-01T06:08:26.984Z,37.06
2018-07-01T06:10:53.296Z,36.20
2018-07-01T06:13:19.640Z,36.57
2018-07-01T06:15:45.955Z,36.47
2018-07-01T06:18:12.297Z,35.54
2018-07-01T06:20:38.608Z,36.37
2018-07-01T06:23:04.920Z,36.12
2018-07-01T06:25:31.289Z,37.43
2018-07-01T06:27:57.601Z,39.78
2018-07-01T06:30:23.911Z,41.25
2018-07-01T06:32:50.252Z,40.13
2018-07-01T06:35:16.558Z,39.45
2018-07-01T06:37:42.871Z,38.32
2018-07-01T06:40:09.193Z,38.65
2018-07-01T06:42:35.616Z,38.25
2018-07-01T06:45:01.928Z,38.05
2018-07-01T06:47:28.261Z,38.16
2018-07-01T06:49:54.579Z,38.51
2018-07-01T06:52:20.895Z,38.52
2018-07-01T06:54:47.214Z,38.35
2018-07-01T06:57:13.519Z,38.95
2018-07-01T06:59:39.831Z,39.16
2018-07-01T07:02:06.141Z,39.39
2018-07-01T07:04:32.492Z,39.28
2018-07-01T07:06:58.800Z,37.71
2018-07-01T07:09:25.118Z,38.46
2018-07-01T07:11:51.433Z,38.63
2018-07-01T07:14:17.746Z,38.07
2018-07-01T07:16:44.067Z,38.74
2018-07-01T07:19:10.382Z,38.31
2018-07-01T07:21:36.742Z,38.69
2018-07-01T07:24:03.051Z,37.77
2018-07-01T07:26:29.372Z,36.90
2018-07-01T07:28:55.685Z,36.75
2018-07-01T07:31:22.002Z,36.95
2018-07-01T07:33:48.313Z,37.29
2018-07-01T07:36:14.620Z,36.90
2018-07-01T07:38:40.979Z,38.03
2018-07-01T07:41:07.291Z,37.92
2018-07-01T07:43:33.601Z,39.29
2018-07-01T07:45:59.927Z,38.29
2018-07-01T07:48:26.244Z,39.06
2018-07-01T07:50:52.565Z,40.50
2018-07-01T07:53:18.875Z,40.76
2018-07-01T07:55:45.203Z,38.67
2018-07-01T07:58:11.518Z,38.47
2018-07-01T08:00:37.837Z,38.54
2018-07-01T08:03:04.149Z,38.16
2018-07-01T08:05:30.501Z,38.08
2018-07-01T08:07:56.813Z,37.23
2018-07-01T08:10:23.127Z,37.92
2018-07-01T08:12:49.461Z,38.05
2018-07-01T08:15:15.764Z,37.95
2018-07-01T08:17:42.081Z,37.29
2018-07-01T08:20:08.397Z,37.51
2018-07-01T08:22:34.740Z,38.22
2018-07-01T08:25:01.076Z,38.04
2018-07-01T08:27:27.392Z,37.30
2018-07-01T08:29:53.702Z,36.38
2018-07-01T08:32:20.011Z,36.22
2018-07-01T08:34:46.330Z,35.99
2018-07-01T08:37:12.649Z,36.14
2018-07-01T08:39:38.959Z,37.53
2018-07-01T08:42:05.272Z,37.89
2018-07-01T08:44:31.617Z,36.91
2018-07-01T08:46:57.927Z,36.53
2018-07-01T08:49:24.240Z,36.59
2018-07-01T08:51:50.557Z,35.93
2018-07-01T08:54:16.866Z,36.03
2018-07-01T08:56:43.183Z,36.31
2018-07-01T08:59:09.491Z,36.65
2018-07-01T09:01:35.810Z,35.15
2018-07-01T09:04:02.122Z,35.98
2018-07-01T09:06:28.474Z,36.46
2018-07-01T09:08:54.797Z,36.50
2018-07-01T09:11:21.101Z,35.90
2018-07-01T09:13:47.411Z,35.29
2018-07-01T09:16:13.719Z,35.73
2018-07-01T09:18:40.036Z,36.94
2018-07-01T09:21:06.349Z,37.19
2018-07-01T09:23:32.746Z,36.73
2018-07-01T09:25:59.005Z,36.54
2018-07-01T09:28:25.316Z,35.63
2018-07-01T09:30:51.644Z,34.88
2018-07-01T09:33:17.960Z,36.21
2018-07-01T09:35:44.269Z,36.73
2018-07-01T09:38:10.595Z,36.99
2018-07-01T09:40:36.901Z,36.60
2018-07-01T09:43:03.212Z,34.83
2018-07-01T09:45:29.522Z,35.31
2018-07-01T09:47:55.843Z,35.01
2018-07-01T09:50:22.206Z,34.86
2018-07-01T09:52:48.464Z,35.37
2018-07-01T09:55:14.777Z,35.50
2018-07-01T09:57:41.082Z,34.61
2018-07-01T10:00:07.396Z,35.59
2018-07-01T10:02:33.713Z,34.64
2018-07-01T10:05:00.034Z,34.79
2018-07-01T10:07:26.349Z,34.77
2018-07-01T10:09:52.671Z,32.99
2018-07-01T10:12:18.989Z,34.15
2018-07-01T10:14:45.294Z,34.21
2018-07-01T10:17:11.611Z,34.83
2018-07-01T10:19:37.924Z,33.34
2018-07-01T10:22:04.239Z,34.32
2018-07-01T10:24:30.597Z,34.32
2018-07-01T10:26:56.903Z,33.51
2018-07-01T10:29:23.217Z,32.97
2018-07-01T10:31:49.529Z,33.09
2018-07-01T10:34:15.849Z,33.02
2018-07-01T10:36:42.173Z,32.38
2018-07-01T10:39:08.485Z,32.29
2018-07-01T10:41:34.799Z,32.91
2018-07-01T10:44:01.124Z,34.86
2018-07-01T10:46:27.471Z,34.79
2018-07-01T10:48:53.785Z,34.71
2018-07-01T10:51:20.111Z,35.15
2018-07-01T10:53:46.411Z,36.18
2018-07-01T10:56:12.720Z,35.59
2018-07-01T10:58:39.036Z,35.04
2018-07-01T11:01:05.347Z,34.81
2018-07-01T11:03:31.685Z,33.90
2018-07-01T11:05:58.021Z,34.62
2018-07-01T11:08:24.323Z,35.36
2018-07-01T11:10:50.630Z,35.98
2018-07-01T11:13:16.987Z,36.99
2018-07-01T11:15:43.298Z,36.48
2018-07-01T11:18:09.615Z,36.94
2018-07-01T11:20:35.935Z,36.29
2018-07-01T11:23:02.259Z,36.75
2018-07-01T11:25:28.571Z,36.71
2018-07-01T11:27:54.881Z,36.05
2018-07-01T11:30:21.201Z,36.64
2018-07-01T11:32:47.541Z,36.49
2018-07-01T11:35:13.850Z,37.46
2018-07-01T11:37:40.160Z,36.44
2018-07-01T11:40:06.542Z,37.57
2018-07-01T11:42:32.895Z,37.64
2018-07-01T11:44:59.186Z,37.32
2018-07-01T11:47:25.500Z,36.96
2018-07-01T11:49:51.821Z,37.41
2018-07-01T11:52:18.213Z,36.56
2018-07-01T11:54:44.461Z,37.32
2018-07-01T11:57:10.776Z,36.97
2018-07-01T11:59:37.085Z,36.77
2018-07-01T12:02:03.524Z,37.55
2018-07-01T12:04:29.875Z,38.55
2018-07-01T12:06:56.191Z,37.74
2018-07-01T12:09:22.747Z,38.24
2018-07-01T12:11:49.059Z,38.01
2018-07-01T12:14:15.408Z,38.12
2018-07-01T12:16:41.729Z,36.87
2018-07-01T12:19:08.047Z,37.22
2018-07-01T12:21:34.363Z,37.24
2018-07-01T12:24:00.674Z,37.75
2018-07-01T12:26:26.993Z,38.42
2018-07-01T12:28:53.480Z,38.63
2018-07-01T12:31:19.706Z,39.05
2018-07-01T12:33:46.027Z,38.93
2018-07-01T12:36:12.345Z,38.98
2018-07-01T12:38:38.686Z,39.45
2018-07-01T12:41:05.025Z,39.20
2018-07-01T12:43:31.346Z,38.95
2018-07-01T12:45:57.664Z,40.09
2018-07-01T12:48:23.977Z,39.23
2018-07-01T12:50:50.299Z,39.90
2018-07-01T12:53:16.608Z,38.95
2018-07-01T12:55:42.917Z,39.03
2018-07-01T12:58:09.243Z,38.99
2018-07-01T13:00:35.553Z,37.91
2018-07-01T13:03:01.868Z,37.36
2018-07-01T13:05:28.180Z,36.38
2018-07-01T13:07:54.554Z,36.58
2018-07-01T13:10:20.865Z,38.57
2018-07-01T13:12:47.172Z,39.43
2018-07-01T13:15:13.489Z,39.71
2018-07-01T13:17:42.881Z,39.24
2018-07-01T13:20:07.080Z,38.55
2018-07-01T13:22:33.402Z,38.13
2018-07-01T13:24:59.732Z,38.99
2018-07-01T13:27:26.037Z,39.96
2018-07-01T13:29:52.470Z,41.13
2018-07-01T13:32:19.043Z,41.15
2018-07-01T13:34:45.243Z,41.22
2018-07-01T13:37:11.565Z,42.04
2018-07-01T13:39:37.880Z,41.73
2018-07-01T13:42:04.194Z,42.25
2018-07-01T13:44:30.504Z,41.99
2018-07-01T13:46:56.848Z,42.14
2018-07-01T13:49:23.196Z,42.04
2018-07-01T13:51:49.541Z,42.55
2018-07-01T13:54:15.861Z,42.83
2018-07-01T13:56:42.182Z,42.37
2018-07-01T13:59:09.770Z,43.22
2018-07-01T14:01:34.913Z,43.30
2018-07-01T14:04:01.198Z,43.19
2018-07-01T14:06:27.547Z,43.60
2018-07-01T14:08:53.865Z,43.69
2018-07-01T14:11:20.187Z,44.27
2018-07-01T14:13:46.506Z,44.50
2018-07-01T14:16:12.816Z,44.61
2018-07-01T14:18:39.135Z,44.50
2018-07-01T14:21:05.443Z,44.48
2018-07-01T14:23:31.769Z,44.14
2018-07-01T14:25:58.087Z,43.57
2018-07-01T14:28:24.406Z,43.80
2018-07-01T14:30:50.723Z,43.81
2018-07-01T14:33:17.035Z,44.55
2018-07-01T14:35:43.354Z,44.52
2018-07-01T14:38:09.723Z,44.81
2018-07-01T14:40:36.030Z,45.06
2018-07-01T14:43:02.346Z,45.86
2018-07-01T14:45:28.662Z,44.35
2018-07-01T14:47:54.978Z,44.83
2018-07-01T14:50:21.323Z,44.30
2018-07-01T14:52:47.631Z,44.54
2018-07-01T14:55:13.946Z,45.54
2018-07-01T14:57:40.264Z,45.03
2018-07-01T15:00:06.571Z,45.52
2018-07-01T15:02:32.898Z,45.00
2018-07-01T15:04:59.212Z,45.14
2018-07-01T15:07:25.526Z,45.54
2018-07-01T15:09:51.843Z,45.77
2018-07-01T15:12:18.166Z,45.16
2018-07-01T15:14:44.473Z,46.18
2018-07-01T15:17:10.830Z,45.25
2018-07-01T15:19:37.156Z,45.57
2018-07-01T15:22:03.475Z,45.61
2018-07-01T15:24:29.799Z,45.38
2018-07-01T15:26:56.160Z,46.12
2018-07-01T15:29:22.773Z,46.64
2018-07-01T15:31:49.081Z,46.20
2018-07-01T15:34:15.399Z,46.16
2018-07-01T15:36:41.731Z,46.40
2018-07-01T15:39:08.104Z,46.68
2018-07-01T15:41:37.554Z,46.11
2018-07-01T15:44:03.844Z,46.00
2018-07-01T15:46:30.154Z,46.39
2018-07-01T15:48:56.472Z,46.32
2018-07-01T15:51:22.837Z,46.19
2018-07-01T15:53:49.159Z,47.04
2018-07-01T15:56:15.603Z,46.83
2018-07-01T15:58:50.791Z,46.85
2018-07-01T16:01:17.118Z,47.33
2018-07-01T16:03:43.433Z,47.05
2018-07-01T16:06:09.747Z,47.22
2018-07-01T16:08:36.064Z,46.76
2018-07-01T16:11:02.417Z,47.38
2018-07-01T16:13:28.724Z,47.78
2018-07-01T16:15:55.039Z,47.40
2018-07-01T16:18:21.362Z,47.84
2018-07-01T16:20:47.669Z,48.01
2018-07-01T16:23:13.986Z,48.44
2018-07-01T16:25:40.298Z,49.29
2018-07-01T16:28:06.620Z,49.18
2018-07-01T16:30:32.941Z,49.73
2018-07-01T16:33:02.097Z,48.86
2018-07-01T16:35:28.480Z,49.18
2018-07-01T16:37:54.789Z,49.10
2018-07-01T16:40:21.104Z,48.66
2018-07-01T16:42:47.425Z,48.56
2018-07-01T16:45:13.746Z,48.74
2018-07-01T16:47:40.112Z,48.88
2018-07-01T16:50:06.456Z,48.95
2018-07-01T16:52:32.882Z,49.14
2018-07-01T16:54:59.080Z,49.16
2018-07-01T16:57:25.394Z,49.31
2018-07-01T16:59:51.733Z,49.21
2018-07-01T17:02:18.054Z,49.54
2018-07-01T17:04:44.367Z,49.58
2018-07-01T17:07:10.713Z,49.83
2018-07-01T17:09:37.027Z,50.03
2018-07-01T17:12:03.350Z,50.26
2018-07-01T17:14:29.660Z,50.70
2018-07-01T17:16:56.035Z,50.63
2018-07-01T17:19:22.351Z,50.45
2018-07-01T17:21:48.664Z,50.94
2018-07-01T17:24:15.010Z,50.59
2018-07-01T17:26:41.330Z,50.83
2018-07-01T17:29:07.682Z,51.20
2018-07-01T17:31:33.995Z,51.07
2018-07-01T17:34:00.313Z,51.47
2018-07-01T17:36:26.653Z,51.41
2018-07-01T17:38:52.968Z,51.37
2018-07-01T17:41:19.285Z,51.43
2018-07-01T17:43:48.059Z,51.44
2018-07-01T17:46:14.374Z,52.00
2018-07-01T17:48:40.692Z,52.24
2018-07-01T17:51:07.013Z,53.01
2018-07-01T17:53:33.364Z,53.37
2018-07-01T17:55:59.708Z,53.82
2018-07-01T17:58:26.036Z,54.05
2018-07-01T18:00:52.362Z,54.46
2018-07-01T18:03:18.691Z,54.85
2018-07-01T18:05:45.017Z,55.10
2018-07-01T18:08:11.333Z,55.07
2018-07-01T18:10:37.642Z,55.37
2018-07-01T18:13:03.979Z,55.67
2018-07-01T18:15:30.299Z,56.17
2018-07-01T18:17:56.617Z,56.58
2018-07-01T18:20:22.948Z,56.79
2018-07-01T18:23:18.235Z,56.45
2018-07-01T18:25:15.631Z,56.33
2018-07-01T18:27:44.762Z,56.44
2018-07-01T18:30:08.253Z,56.58
2018-07-01T18:32:34.573Z,56.55
2018-07-01T18:35:00.961Z,56.38
2018-07-01T18:37:27.284Z,56.39
2018-07-01T18:39:53.597Z,56.40
2018-07-01T18:42:19.920Z,56.49
2018-07-01T18:44:46.279Z,56.55
2018-07-01T18:47:12.596Z,56.90
2018-07-01T18:49:38.940Z,56.66
2018-07-01T18:52:05.260Z,58.03
2018-07-01T18:54:31.570Z,64.13
2018-07-01T18:56:57.884Z,70.85
2018-07-01T18:59:24.192Z,73.98
2018-07-01T19:01:50.567Z,75.19
2018-07-01T19:04:16.876Z,73.46
2018-07-01T19:06:43.215Z,74.01
2018-07-01T19:09:09.535Z,77.50
2018-07-01T19:11:35.873Z,80.11
2018-07-01T19:14:02.325Z,81.55
2018-07-01T19:16:28.768Z,82.43
2018-07-01T19:18:55.095Z,81.24
2018-07-01T19:21:21.427Z,78.92
2018-07-01T19:23:47.777Z,78.48
2018-07-01T19:26:14.109Z,79.02
2018-07-01T19:28:40.447Z,79.54
2018-07-01T19:31:06.762Z,80.45
2018-07-01T19:33:33.093Z,80.92
2018-07-01T19:35:59.413Z,80.37
2018-07-01T19:38:25.782Z,79.93
2018-07-01T19:40:52.096Z,81.81
2018-07-01T19:43:18.558Z,82.07
2018-07-01T19:45:44.759Z,83.94
2018-07-01T19:48:11.095Z,86.02
2018-07-01T19:50:37.409Z,86.63
2018-07-01T19:53:03.720Z,87.61
2018-07-01T19:55:30.033Z,87.55
2018-07-01T19:57:56.348Z,87.02
2018-07-01T20:00:22.721Z,87.75
2018-07-01T20:02:49.033Z,86.95
2018-07-01T20:05:15.366Z,86.92
2018-07-01T20:07:41.696Z,87.38
2018-07-01T20:10:08.010Z,87.06
2018-07-01T20:12:34.340Z,87.68
2018-07-01T20:15:00.673Z,87.33
2018-07-01T20:17:27.020Z,86.93
2018-07-01T20:19:53.338Z,86.91
2018-07-01T20:22:19.667Z,87.59
2018-07-01T20:24:45.999Z,87.47
2018-07-01T20:27:12.314Z,87.87
2018-07-01T20:29:38.639Z,89.79
2018-07-01T20:32:04.954Z,89.41
2018-07-01T20:34:31.268Z,89.05
2018-07-01T20:36:57.580Z,88.05
2018-07-01T20:39:23.938Z,87.47
2018-07-01T20:41:50.262Z,88.36
2018-07-01T20:44:16.581Z,89.09
2018-07-01T20:46:42.911Z,88.40
2018-07-01T20:49:09.241Z,88.59
2018-07-01T20:51:35.553Z,89.00
2018-07-01T20:54:01.877Z,89.20
2018-07-01T20:56:28.195Z,88.29
2018-07-01T20:58:54.508Z,88.24
2018-07-01T21:01:20.823Z,89.31
2018-07-01T21:03:47.143Z,87.79
2018-07-01T21:06:13.455Z,88.15
2018-07-01T21:08:39.808Z,87.75
2018-07-01T21:11:06.130Z,88.42
2018-07-01T21:13:32.445Z,89.92
2018-07-01T21:15:58.768Z,89.67
2018-07-01T21:18:25.086Z,90.52
2018-07-01T21:20:51.430Z,91.23
2018-07-01T21:23:17.743Z,91.96
2018-07-01T21:25:44.923Z,91.62
2018-07-01T21:28:11.207Z,91.39
2018-07-01T21:30:37.523Z,91.92
2018-07-01T21:33:03.840Z,91.58
2018-07-01T21:35:30.396Z,91.23
2018-07-01T21:37:56.717Z,90.90
2018-07-01T21:40:23.025Z,90.92
2018-07-01T21:42:49.337Z,91.57
2018-07-01T21:45:15.676Z,91.52
2018-07-01T21:47:41.978Z,91.52
2018-07-01T21:50:08.290Z,91.41
2018-07-01T21:52:34.597Z,90.75
2018-07-01T21:55:00.910Z,90.60
2018-07-01T21:57:27.217Z,90.13
2018-07-01T21:59:53.537Z,90.95
2018-07-01T22:02:19.850Z,91.30
2018-07-01T22:04:46.169Z,91.20
2018-07-01T22:07:12.485Z,91.33
2018-07-01T22:09:38.803Z,91.32
2018-07-01T22:12:05.112Z,91.34
2018-07-01T22:14:31.431Z,91.12
2018-07-01T22:16:57.745Z,91.34
2018-07-01T22:19:24.066Z,91.02
2018-07-01T22:21:50.394Z,91.00
2018-07-01T22:24:16.697Z,91.20
2018-07-01T22:26:43.004Z,90.79
2018-07-01T22:29:09.333Z,90.42
2018-07-01T22:31:35.643Z,90.37
2018-07-01T22:34:01.963Z,93.36
2018-07-01T22:36:28.275Z,94.82
2018-07-01T22:38:54.640Z,93.62
2018-07-01T22:41:20.961Z,92.49
2018-07-01T22:43:47.278Z,92.85
2018-07-01T22:46:13.590Z,93.41
2018-07-01T22:48:39.905Z,92.20
2018-07-01T22:51:06.220Z,92.70
2018-07-01T22:53:32.527Z,93.08
2018-07-01T22:55:58.888Z,92.79
2018-07-01T22:58:25.201Z,92.64
2018-07-01T23:00:51.514Z,92.48
2018-07-01T23:03:17.837Z,92.50
2018-07-01T23:05:44.154Z,91.24
2018-07-01T23:08:10.470Z,90.86
2018-07-01T23:10:36.779Z,90.57
2018-07-01T23:13:03.090Z,92.41
2018-07-01T23:15:29.399Z,92.53
2018-07-01T23:17:55.716Z,93.91
2018-07-01T23:20:22.028Z,96.31
2018-07-01T23:22:48.351Z,98.15
2018-07-01T23:25:14.694Z,99.88
2018-07-01T23:27:40.975Z,100.00
2018-07-01T23:30:07.290Z,100.00
2018-07-01T23:32:33.615Z,100.00
2018-07-01T23:34:59.934Z,100.00
2018-07-01T23:37:26.264Z,100.00
2018-07-01T23:39:52.585Z,100.00
2018-07-01T23:42:18.903Z,100.00
2018-07-01T23:44:45.213Z,100.00
2018-07-01T23:47:11.528Z,100.00
2018-07-01T23:49:37.858Z,100.00
2018-07-01T23:52:04.178Z,100.00
2018-07-01T23:54:30.492Z,100.00
2018-07-01T23:56:56.866Z,100.00
2018-07-01T23:59:23.173Z,100.00
